Time;durP1;ratioP1;P1;durP2;ratioP2;P2;SDS_P1;SDS_P2;PMS_P1;PMS_P2;Temp;Humidity;BMP_temperature;BMP_pressure;BME280_temperature;BME280_humidity;BME280_pressure;Samples;Min_cycle;Max_cycle;Signal;HPM_P1;HPM_P2
2021/06/04 00:02:04;;;;;;;7.75;6.75;;;;;;;;;;5115144;28;20042;-71
2021/06/04 00:04:31;;;;;;;7.30;6.60;;;;;;;;;;5114759;28;20027;-72
2021/06/04 00:06:57;;;;;;;5.95;5.45;;;;;;;;;;5114367;28;20502;-71
2021/06/04 00:09:23;;;;;;;7.45;6.03;;;;;;;;;;5114183;28;20377;-71
2021/06/04 00:11:50;;;;;;;6.75;6.07;;;;;;;;;;5114150;28;20164;-71
2021/06/04 00:14:19;;;;;;;10.68;6.55;;;;;;;;;;5113874;28;20027;-71
2021/06/04 00:16:47;;;;;;;6.65;6.13;;;;;;;;;;5113354;28;20024;-71
2021/06/04 00:19:14;;;;;;;9.68;5.90;;;;;;;;;;5114365;28;20024;-71
2021/06/04 00:21:43;;;;;;;7.63;6.18;;;;;;;;;;5115356;28;20028;-71
2021/06/04 00:24:10;;;;;;;7.85;7.05;;;;;;;;;;5114303;28;20026;-71
2021/06/04 00:26:36;;;;;;;7.63;6.82;;;;;;;;;;5110532;28;20229;-72
2021/06/04 00:29:03;;;;;;;8.00;6.50;;;;;;;;;;5109456;28;20034;-72
2021/06/04 00:31:29;;;;;;;7.22;6.15;;;;;;;;;;5113779;28;20553;-72
2021/06/04 00:33:55;;;;;;;8.13;6.25;;;;;;;;;;5113246;28;20448;-72
2021/06/04 00:36:23;;;;;;;8.85;6.80;;;;;;;;;;5109177;28;20107;-72
2021/06/04 00:38:49;;;;;;;7.90;6.28;;;;;;;;;;5109592;28;20051;-72
2021/06/04 00:41:18;;;;;;;8.88;6.00;;;;;;;;;;5110451;28;20110;-71
2021/06/04 00:43:44;;;;;;;9.13;7.07;;;;;;;;;;5114373;28;20389;-71
2021/06/04 00:46:10;;;;;;;8.57;6.40;;;;;;;;;;5113739;28;20357;-71
2021/06/04 00:48:37;;;;;;;6.93;6.32;;;;;;;;;;5113662;28;20461;-71
2021/06/04 00:51:23;;;;;;;8.05;7.25;;;;;;;;;;5114568;28;20424;-71
2021/06/04 00:53:49;;;;;;;8.25;6.40;;;;;;;;;;5099497;28;20026;-71
2021/06/04 00:56:15;;;;;;;6.38;5.78;;;;;;;;;;5113232;28;20035;-71
2021/06/04 00:58:43;;;;;;;7.20;6.50;;;;;;;;;;5114102;28;20441;-71
2021/06/04 01:01:09;;;;;;;8.32;6.75;;;;;;;;;;5113945;28;20059;-71
2021/06/04 01:03:36;;;;;;;7.15;6.35;;;;;;;;;;5113121;28;20563;-71
2021/06/04 01:06:22;;;;;;;6.03;5.43;;;;;;;;;;5113546;28;20067;-71
2021/06/04 01:08:56;;;;;;;6.55;5.95;;;;;;;;;;5098475;28;20023;-71
2021/06/04 01:11:31;;;;;;;7.95;6.45;;;;;;;;;;5112203;28;20476;-71
2021/06/04 01:14:02;;;;;;;6.88;6.25;;;;;;;;;;5113259;28;20038;-71
2021/06/04 01:16:48;;;;;;;6.93;6.22;;;;;;;;;;5113420;28;20024;-72
2021/06/04 01:19:34;;;;;;;6.90;6.30;;;;;;;;;;5098755;28;20023;-71
2021/06/04 01:22:01;;;;;;;7.07;6.20;;;;;;;;;;5097516;28;20063;-71
2021/06/04 01:24:47;;;;;;;8.95;6.13;;;;;;;;;;5112734;28;20028;-72
2021/06/04 01:27:15;;;;;;;9.82;6.68;;;;;;;;;;5097801;28;20413;-72
2021/06/04 01:29:42;;;;;;;7.80;6.57;;;;;;;;;;5108086;28;20096;-72
2021/06/04 01:32:10;;;;;;;6.63;6.03;;;;;;;;;;5108198;28;20020;-71
2021/06/04 01:34:37;;;;;;;8.07;6.63;;;;;;;;;;5108729;28;20066;-71
2021/06/04 01:37:05;;;;;;;6.90;5.32;;;;;;;;;;5107895;28;20114;-72
2021/06/04 01:39:33;;;;;;;8.05;5.63;;;;;;;;;;5108583;28;20027;-72
2021/06/04 01:41:59;;;;;;;6.47;5.32;;;;;;;;;;5107932;28;20030;-71
2021/06/04 01:44:28;;;;;;;9.18;5.90;;;;;;;;;;5108876;28;20019;-71
2021/06/04 01:46:59;;;;;;;7.43;6.32;;;;;;;;;;5107804;28;20076;-73
2021/06/04 01:49:25;;;;;;;7.00;6.40;;;;;;;;;;5109422;28;20154;-71
2021/06/04 01:51:54;;;;;;;5.97;5.38;;;;;;;;;;5108889;28;20023;-72
2021/06/04 01:54:22;;;;;;;5.95;5.38;;;;;;;;;;5109461;28;20031;-72
2021/06/04 01:56:49;;;;;;;7.53;5.78;;;;;;;;;;5109221;28;20023;-71
2021/06/04 01:59:18;;;;;;;13.32;5.95;;;;;;;;;;5107074;28;20024;-71
2021/06/04 02:01:45;;;;;;;7.78;6.22;;;;;;;;;;5108291;28;20024;-71
2021/06/04 02:04:13;;;;;;;14.07;6.25;;;;;;;;;;5108126;28;20047;-71
2021/06/04 02:06:39;;;;;;;11.20;5.93;;;;;;;;;;5108662;28;20020;-71
2021/06/04 02:09:07;;;;;;;10.25;6.90;;;;;;;;;;5109450;28;20465;-71
2021/06/04 02:11:33;;;;;;;7.32;6.30;;;;;;;;;;5113453;28;20030;-71
2021/06/04 02:14:00;;;;;;;10.07;6.32;;;;;;;;;;5113482;28;20056;-71
2021/06/04 02:16:46;;;;;;;7.53;6.75;;;;;;;;;;5112838;28;20042;-71
2021/06/04 02:19:23;;;;;;;7.57;6.78;;;;;;;;;;5101037;28;20024;-72
2021/06/04 02:21:56;;;;;;;9.40;5.88;;;;;;;;;;5117481;28;20024;-71
2021/06/04 02:24:28;;;;;;;7.07;6.15;;;;;;;;;;5117292;28;20023;-72
2021/06/04 02:26:57;;;;;;;11.10;6.28;;;;;;;;;;5116920;28;20019;-71
2021/06/04 02:29:27;;;;;;;7.82;5.95;;;;;;;;;;5117377;28;20019;-71
2021/06/04 02:31:54;;;;;;;10.48;6.47;;;;;;;;;;5117918;28;20338;-71
2021/06/04 02:34:22;;;;;;;6.65;6.03;;;;;;;;;;5116869;28;20028;-72
2021/06/04 02:36:50;;;;;;;10.40;6.22;;;;;;;;;;5115939;28;20468;-71
2021/06/04 02:39:18;;;;;;;5.85;5.35;;;;;;;;;;5116224;28;20027;-71
2021/06/04 02:41:45;;;;;;;10.23;6.35;;;;;;;;;;5115749;28;20473;-71
2021/06/04 02:44:12;;;;;;;10.35;6.55;;;;;;;;;;5116891;28;20437;-71
2021/06/04 02:46:40;;;;;;;6.68;6.07;;;;;;;;;;5115970;28;20023;-71
2021/06/04 02:49:07;;;;;;;6.60;5.97;;;;;;;;;;5115682;28;20054;-72
2021/06/04 02:51:34;;;;;;;8.95;5.75;;;;;;;;;;5116799;28;20116;-71
2021/06/04 02:54:02;;;;;;;6.45;5.78;;;;;;;;;;5116333;28;20464;-71
2021/06/04 02:56:30;;;;;;;11.02;5.95;;;;;;;;;;5115828;28;20423;-71
2021/06/04 02:58:58;;;;;;;6.07;5.57;;;;;;;;;;5116422;28;20059;-71
2021/06/04 03:01:24;;;;;;;9.25;5.65;;;;;;;;;;5116376;28;20485;-71
2021/06/04 03:03:52;;;;;;;9.73;6.70;;;;;;;;;;5116680;28;20472;-71
2021/06/04 03:06:19;;;;;;;7.35;5.53;;;;;;;;;;5115722;28;20024;-71
2021/06/04 03:08:46;;;;;;;6.05;5.53;;;;;;;;;;5115045;28;20028;-71
2021/06/04 03:11:13;;;;;;;8.73;7.72;;;;;;;;;;5115549;28;20076;-72
2021/06/04 03:13:39;;;;;;;23.48;13.30;;;;;;;;;;5116210;28;20032;-71
2021/06/04 03:16:07;;;;;;;17.40;10.80;;;;;;;;;;5116360;28;20407;-71
2021/06/04 03:18:35;;;;;;;17.10;10.68;;;;;;;;;;5116029;28;20041;-71
2021/06/04 03:21:01;;;;;;;22.42;10.40;;;;;;;;;;5115954;28;20024;-72
2021/06/04 03:23:35;;;;;;;16.67;11.02;;;;;;;;;;5115237;28;20071;-72
2021/06/04 03:26:02;;;;;;;26.70;10.30;;;;;;;;;;5116403;28;20073;-71
2021/06/04 03:28:28;;;;;;;12.70;9.63;;;;;;;;;;5115956;28;20414;-71
2021/06/04 03:30:54;;;;;;;20.15;10.43;;;;;;;;;;5115025;28;20023;-72
2021/06/04 03:33:22;;;;;;;14.27;10.10;;;;;;;;;;5115231;28;20019;-71
2021/06/04 03:35:48;;;;;;;24.80;9.20;;;;;;;;;;5112746;28;20459;-72
2021/06/04 03:38:16;;;;;;;15.40;9.80;;;;;;;;;;5110643;28;20028;-71
2021/06/04 03:40:42;;;;;;;10.05;7.40;;;;;;;;;;5110275;28;20026;-72
2021/06/04 03:43:09;;;;;;;9.02;8.00;;;;;;;;;;5113683;28;20027;-71
2021/06/04 03:45:39;;;;;;;18.17;8.73;;;;;;;;;;5115066;28;20561;-71
2021/06/04 03:48:05;;;;;;;19.10;8.77;;;;;;;;;;5115634;28;20435;-71
2021/06/04 03:50:31;;;;;;;8.30;7.45;;;;;;;;;;5114253;28;20047;-72
2021/06/04 03:52:58;;;;;;;11.00;8.70;;;;;;;;;;5115396;28;20420;-71
2021/06/04 03:55:25;;;;;;;15.95;8.35;;;;;;;;;;5115631;28;20088;-71
2021/06/04 03:57:51;;;;;;;11.32;7.53;;;;;;;;;;5115745;28;20462;-71
2021/06/04 04:00:19;;;;;;;12.75;8.07;;;;;;;;;;5115465;28;20023;-71
2021/06/04 04:02:45;;;;;;;12.80;8.10;;;;;;;;;;5114769;28;20019;-71
2021/06/04 04:05:11;;;;;;;8.60;7.47;;;;;;;;;;5114969;28;20028;-71
2021/06/04 04:07:38;;;;;;;7.97;7.10;;;;;;;;;;5115286;28;20050;-71
2021/06/04 04:10:05;;;;;;;14.07;7.25;;;;;;;;;;5114856;28;20399;-71
2021/06/04 04:12:31;;;;;;;10.52;8.32;;;;;;;;;;5114478;28;20019;-71
2021/06/04 04:14:57;;;;;;;10.20;7.60;;;;;;;;;;5115209;28;20031;-71
2021/06/04 04:17:23;;;;;;;9.68;7.50;;;;;;;;;;5114526;28;20473;-71
2021/06/04 04:19:50;;;;;;;10.07;8.43;;;;;;;;;;5114147;28;20023;-71
2021/06/04 04:22:16;;;;;;;12.55;7.40;;;;;;;;;;5114005;28;20030;-71
2021/06/04 04:24:44;;;;;;;10.02;7.40;;;;;;;;;;5114772;28;20020;-71
2021/06/04 04:27:10;;;;;;;13.57;7.25;;;;;;;;;;5115272;28;20076;-71
2021/06/04 04:29:36;;;;;;;10.95;7.15;;;;;;;;;;5114968;28;20093;-71
2021/06/04 04:32:04;;;;;;;14.60;7.70;;;;;;;;;;5114047;28;20039;-71
2021/06/04 04:34:30;;;;;;;7.40;6.60;;;;;;;;;;5113832;28;20024;-71
2021/06/04 04:36:57;;;;;;;7.38;6.55;;;;;;;;;;5114405;28;20023;-71
2021/06/04 04:39:24;;;;;;;11.65;6.63;;;;;;;;;;5114512;28;20084;-72
2021/06/04 04:41:51;;;;;;;9.63;7.47;;;;;;;;;;5101480;28;20024;-71
2021/06/04 04:44:17;;;;;;;12.13;8.13;;;;;;;;;;5097882;28;20085;-71
2021/06/04 04:46:43;;;;;;;11.82;7.90;;;;;;;;;;5097807;28;20098;-73
2021/06/04 04:49:09;;;;;;;12.27;6.88;;;;;;;;;;5098283;28;20515;-71
2021/06/04 04:51:36;;;;;;;13.25;7.30;;;;;;;;;;5094197;28;20020;-71
2021/06/04 04:54:02;;;;;;;13.35;6.57;;;;;;;;;;5093927;28;20028;-71
2021/06/04 04:56:28;;;;;;;7.75;6.38;;;;;;;;;;5093823;28;20061;-72
2021/06/04 04:58:54;;;;;;;11.95;7.13;;;;;;;;;;5093372;28;20133;-72
2021/06/04 05:01:20;;;;;;;7.53;5.82;;;;;;;;;;5092843;28;20027;-70
2021/06/04 05:03:46;;;;;;;9.20;7.03;;;;;;;;;;5093857;28;20044;-71
2021/06/04 05:06:13;;;;;;;20.35;7.80;;;;;;;;;;5093645;28;20454;-72
2021/06/04 05:08:39;;;;;;;16.27;7.60;;;;;;;;;;5092868;28;20111;-73
2021/06/04 05:11:05;;;;;;;18.65;7.68;;;;;;;;;;5093105;28;20024;-72
2021/06/04 05:13:31;;;;;;;10.88;6.65;;;;;;;;;;5093109;28;20483;-73
2021/06/04 05:15:59;;;;;;;18.85;6.82;;;;;;;;;;5093253;28;20358;-72
2021/06/04 05:18:25;;;;;;;12.93;7.05;;;;;;;;;;5092827;28;20030;-72
2021/06/04 05:20:52;;;;;;;9.13;6.90;;;;;;;;;;5093439;28;20020;-72
2021/06/04 05:23:18;;;;;;;12.52;7.45;;;;;;;;;;5093601;28;20040;-72
2021/06/04 05:25:46;;;;;;;10.80;7.05;;;;;;;;;;5092870;28;20028;-72
2021/06/04 05:28:13;;;;;;;9.93;6.80;;;;;;;;;;5093080;28;20370;-71
2021/06/04 05:30:40;;;;;;;10.35;7.72;;;;;;;;;;5092771;28;20531;-73
2021/06/04 05:33:07;;;;;;;9.65;6.93;;;;;;;;;;5092950;28;20028;-72
2021/06/04 05:35:33;;;;;;;7.03;6.00;;;;;;;;;;5093485;28;20035;-71
2021/06/04 05:37:59;;;;;;;13.02;7.20;;;;;;;;;;5092931;28;20026;-71
2021/06/04 05:40:28;;;;;;;14.95;7.68;;;;;;;;;;5093122;28;20028;-71
2021/06/04 05:42:54;;;;;;;12.13;6.95;;;;;;;;;;5092721;28;20177;-70
2021/06/04 05:45:21;;;;;;;17.00;7.13;;;;;;;;;;5093179;28;20024;-71
2021/06/04 05:47:47;;;;;;;22.42;6.80;;;;;;;;;;5092805;28;20028;-71
2021/06/04 05:50:14;;;;;;;8.65;6.47;;;;;;;;;;5092749;28;20109;-71
2021/06/04 05:52:41;;;;;;;7.95;6.43;;;;;;;;;;5100399;28;20043;-71
2021/06/04 05:55:10;;;;;;;16.00;6.65;;;;;;;;;;5104515;28;20095;-72
2021/06/04 05:57:37;;;;;;;9.00;7.53;;;;;;;;;;5106065;28;20081;-71
2021/06/04 06:00:07;;;;;;;9.80;6.90;;;;;;;;;;5106112;28;20028;-72
2021/06/04 06:02:33;;;;;;;7.75;5.93;;;;;;;;;;5104815;28;20107;-71
2021/06/04 06:04:59;;;;;;;8.90;5.95;;;;;;;;;;5105525;28;20476;-72
2021/06/04 06:07:25;;;;;;;6.57;5.97;;;;;;;;;;5106881;28;20060;-72
2021/06/04 06:09:51;;;;;;;9.52;6.05;;;;;;;;;;5104531;28;20016;-72
2021/06/04 06:12:17;;;;;;;8.55;6.97;;;;;;;;;;5105820;28;20024;-71
2021/06/04 06:14:43;;;;;;;7.78;6.20;;;;;;;;;;5095993;28;20059;-71
2021/06/04 06:17:09;;;;;;;9.68;6.63;;;;;;;;;;5096612;28;20020;-71
2021/06/04 06:19:35;;;;;;;12.30;6.22;;;;;;;;;;5096107;28;20067;-71
2021/06/04 06:22:02;;;;;;;6.68;5.68;;;;;;;;;;5103899;28;20088;-72
2021/06/04 06:24:28;;;;;;;7.72;6.10;;;;;;;;;;5096123;28;20567;-73
2021/06/04 06:26:54;;;;;;;8.20;5.95;;;;;;;;;;5105698;28;20149;-71
2021/06/04 06:29:20;;;;;;;7.05;5.60;;;;;;;;;;5104148;28;20024;-72
2021/06/04 06:31:48;;;;;;;7.72;5.65;;;;;;;;;;5107135;28;20116;-71
2021/06/04 06:34:14;;;;;;;10.18;6.30;;;;;;;;;;5116424;28;20019;-70
2021/06/04 06:36:40;;;;;;;8.05;7.00;;;;;;;;;;5116468;28;20032;-71
2021/06/04 06:39:09;;;;;;;6.97;5.93;;;;;;;;;;5116522;28;20031;-70
2021/06/04 06:41:35;;;;;;;8.65;5.38;;;;;;;;;;5116105;28;20472;-71
2021/06/04 06:44:01;;;;;;;7.22;5.82;;;;;;;;;;5115979;28;20101;-71
2021/06/04 06:46:27;;;;;;;7.93;5.35;;;;;;;;;;5116314;28;20024;-71
2021/06/04 06:48:54;;;;;;;8.50;6.07;;;;;;;;;;5113181;28;20044;-72
2021/06/04 06:51:20;;;;;;;10.07;5.78;;;;;;;;;;5105168;28;20468;-71
2021/06/04 06:53:46;;;;;;;5.97;5.35;;;;;;;;;;5105263;28;20374;-72
2021/06/04 06:56:13;;;;;;;7.00;5.78;;;;;;;;;;5103545;28;20024;-71
2021/06/04 06:58:39;;;;;;;11.23;6.38;;;;;;;;;;5095012;28;20348;-71
2021/06/04 07:01:06;;;;;;;6.03;5.53;;;;;;;;;;5096234;28;20034;-71
2021/06/04 07:03:32;;;;;;;6.85;5.47;;;;;;;;;;5096043;28;20040;-72
2021/06/04 07:06:00;;;;;;;6.57;5.90;;;;;;;;;;5095317;28;20035;-71
2021/06/04 07:08:26;;;;;;;8.40;6.45;;;;;;;;;;5095235;28;20488;-71
2021/06/04 07:10:52;;;;;;;6.65;5.07;;;;;;;;;;5096172;28;20035;-73
2021/06/04 07:13:25;;;;;;;7.28;6.03;;;;;;;;;;5096084;28;20503;-74
2021/06/04 07:15:51;;;;;;;7.35;5.50;;;;;;;;;;5103339;28;20086;-73
2021/06/04 07:18:17;;;;;;;6.63;5.10;;;;;;;;;;5096517;28;20024;-72
2021/06/04 07:20:43;;;;;;;7.53;6.05;;;;;;;;;;5109563;28;20060;-71
2021/06/04 07:23:10;;;;;;;7.80;5.70;;;;;;;;;;5103291;28;20031;-73
2021/06/04 07:25:36;;;;;;;7.40;6.47;;;;;;;;;;5106165;28;20063;-73
2021/06/04 07:28:03;;;;;;;6.65;5.85;;;;;;;;;;5094033;28;20036;-72
2021/06/04 07:30:30;;;;;;;13.52;6.15;;;;;;;;;;5093857;28;20099;-73
2021/06/04 07:33:01;;;;;;;6.57;5.78;;;;;;;;;;5092315;28;20024;-72
2021/06/04 07:35:27;;;;;;;7.35;5.28;;;;;;;;;;5104495;28;20093;-73
2021/06/04 07:37:53;;;;;;;5.78;5.28;;;;;;;;;;5114627;28;20746;-73
2021/06/04 07:40:21;;;;;;;8.05;6.05;;;;;;;;;;5114041;28;20435;-72
2021/06/04 07:42:48;;;;;;;5.25;4.75;;;;;;;;;;5112165;28;20070;-75
2021/06/04 07:45:14;;;;;;;7.05;6.25;;;;;;;;;;5115035;28;20526;-72
2021/06/04 07:47:40;;;;;;;6.43;5.80;;;;;;;;;;5114915;28;20072;-71
2021/06/04 07:50:07;;;;;;;7.38;4.95;;;;;;;;;;5103079;28;20386;-71
2021/06/04 07:52:33;;;;;;;7.22;6.03;;;;;;;;;;5102588;28;20628;-71
2021/06/04 07:54:59;;;;;;;5.70;5.20;;;;;;;;;;5102920;28;20051;-71
2021/06/04 07:57:26;;;;;;;6.78;6.05;;;;;;;;;;5104228;28;20500;-72
2021/06/04 07:59:52;;;;;;;6.38;5.70;;;;;;;;;;5112139;28;20543;-71
2021/06/04 08:02:18;;;;;;;10.52;6.20;;;;;;;;;;5109948;28;20023;-72
2021/06/04 08:04:45;;;;;;;6.07;5.45;;;;;;;;;;5104159;28;20031;-71
2021/06/04 08:07:11;;;;;;;7.15;5.85;;;;;;;;;;5102178;28;20024;-71
2021/06/04 08:09:41;;;;;;;6.25;5.65;;;;;;;;;;5103937;28;20047;-70
2021/06/04 08:12:08;;;;;;;10.00;6.05;;;;;;;;;;5104400;28;20027;-71
2021/06/04 08:14:34;;;;;;;10.93;5.60;;;;;;;;;;5114647;28;20024;-71
2021/06/04 08:17:00;;;;;;;6.32;5.20;;;;;;;;;;5114003;28;20020;-74
2021/06/04 08:19:27;;;;;;;5.82;5.05;;;;;;;;;;5115238;28;20019;-71
2021/06/04 08:21:53;;;;;;;6.85;5.57;;;;;;;;;;5102340;28;20031;-72
2021/06/04 08:24:21;;;;;;;9.30;5.63;;;;;;;;;;5099556;28;20421;-72
2021/06/04 08:26:47;;;;;;;5.75;5.25;;;;;;;;;;5093411;28;20058;-72
2021/06/04 08:29:13;;;;;;;15.70;6.53;;;;;;;;;;5092407;28;20031;-72
2021/06/04 08:31:40;;;;;;;6.03;5.45;;;;;;;;;;5109675;28;20085;-71
2021/06/04 08:34:06;;;;;;;11.27;5.95;;;;;;;;;;5108786;28;20048;-71
2021/06/04 08:36:33;;;;;;;9.80;6.07;;;;;;;;;;5092812;28;20032;-72
2021/06/04 08:39:01;;;;;;;7.03;5.13;;;;;;;;;;5092258;28;20042;-71
2021/06/04 08:41:29;;;;;;;5.45;5.03;;;;;;;;;;5106076;28;20020;-71
2021/06/04 08:43:58;;;;;;;6.95;5.40;;;;;;;;;;5112782;28;20541;-71
2021/06/04 08:46:26;;;;;;;6.95;5.55;;;;;;;;;;5113107;28;20032;-73
2021/06/04 08:49:03;;;;;;;5.72;4.45;;;;;;;;;;5101766;28;20055;-72
2021/06/04 08:51:34;;;;;;;9.60;5.72;;;;;;;;;;5097042;28;20031;-72
2021/06/04 08:54:09;;;;;;;5.90;5.32;;;;;;;;;;5096562;28;20066;-69
2021/06/04 08:56:37;;;;;;;9.07;5.47;;;;;;;;;;5097227;28;20053;-71
2021/06/04 08:59:05;;;;;;;12.35;5.05;;;;;;;;;;5098039;28;20031;-70
2021/06/04 09:01:51;;;;;;;6.32;5.57;;;;;;;;;;5091780;28;20031;-70
2021/06/04 09:04:24;;;;;;;11.55;6.05;;;;;;;;;;5086594;28;20040;-70
2021/06/04 09:07:01;;;;;;;7.50;6.40;;;;;;;;;;5092780;28;20020;-69
2021/06/04 09:09:44;;;;;;;6.78;5.65;;;;;;;;;;5104978;28;20041;-70
2021/06/04 09:12:12;;;;;;;6.03;5.50;;;;;;;;;;5096365;28;20027;-71
2021/06/04 09:14:39;;;;;;;5.78;5.18;;;;;;;;;;5096139;28;20016;-70
2021/06/04 09:17:11;;;;;;;8.73;5.18;;;;;;;;;;5096495;28;20024;-72
2021/06/04 09:19:57;;;;;;;5.95;5.20;;;;;;;;;;5094059;28;20126;-70
2021/06/04 09:22:24;;;;;;;9.98;5.00;;;;;;;;;;5077638;28;20058;-71
2021/06/04 09:24:51;;;;;;;5.28;4.82;;;;;;;;;;5093248;28;20028;-72
2021/06/04 09:27:34;;;;;;;9.77;5.20;;;;;;;;;;5092450;28;20023;-71
2021/06/04 09:30:19;;;;;;;5.35;4.75;;;;;;;;;;5098333;28;20480;-71
2021/06/04 09:33:05;;;;;;;12.90;6.40;;;;;;;;;;5113344;28;20032;-70
2021/06/04 09:35:31;;;;;;;10.13;4.70;;;;;;;;;;5098235;28;20422;-71
2021/06/04 09:38:15;;;;;;;5.65;5.15;;;;;;;;;;5113149;28;20028;-71
2021/06/04 09:40:41;;;;;;;7.72;5.72;;;;;;;;;;5113317;28;20103;-70
2021/06/04 09:43:08;;;;;;;8.50;5.60;;;;;;;;;;5113460;28;20036;-70
2021/06/04 09:45:37;;;;;;;13.13;5.53;;;;;;;;;;5113361;28;20130;-70
2021/06/04 09:48:07;;;;;;;13.80;5.65;;;;;;;;;;5113027;28;20038;-71
2021/06/04 09:50:40;;;;;;;8.07;5.32;;;;;;;;;;5112256;28;20044;-71
2021/06/04 09:53:24;;;;;;;8.20;5.93;;;;;;;;;;5111803;28;20024;-72
2021/06/04 09:55:51;;;;;;;18.90;5.93;;;;;;;;;;5113410;28;20111;-71
2021/06/04 09:58:22;;;;;;;9.40;5.15;;;;;;;;;;5113197;28;20031;-71
2021/06/04 10:01:07;;;;;;;7.13;5.55;;;;;;;;;;5113891;28;20051;-70
2021/06/04 10:03:36;;;;;;;12.82;5.93;;;;;;;;;;5113501;28;20044;-72
2021/06/04 10:06:22;;;;;;;5.60;5.10;;;;;;;;;;5113239;28;20020;-71
2021/06/04 10:08:50;;;;;;;14.80;5.38;;;;;;;;;;5097640;28;20020;-71
2021/06/04 10:11:18;;;;;;;7.75;4.93;;;;;;;;;;5112915;28;20030;-71
2021/06/04 10:13:49;;;;;;;10.20;5.50;;;;;;;;;;5112957;28;20059;-70
2021/06/04 10:19:26;;;;;;;5.82;5.32;;;;;;;;;;5077268;28;20032;-70
2021/06/04 10:21:53;;;;;;;7.50;5.68;;;;;;;;;;5110034;28;20420;-71
2021/06/04 10:24:29;;;;;;;9.82;5.53;;;;;;;;;;5113124;28;20028;-70
2021/06/04 10:26:57;;;;;;;5.28;4.78;;;;;;;;;;5113160;28;20016;-70
2021/06/04 10:29:23;;;;;;;7.55;5.78;;;;;;;;;;5112944;28;20069;-70
2021/06/04 10:31:53;;;;;;;17.73;6.82;;;;;;;;;;5113172;28;20026;-70
2021/06/04 10:34:39;;;;;;;5.70;5.07;;;;;;;;;;5112929;28;20115;-70
2021/06/04 10:37:05;;;;;;;9.88;6.13;;;;;;;;;;5097839;28;20026;-71
2021/06/04 10:39:32;;;;;;;12.10;6.30;;;;;;;;;;5115065;28;20114;-71
2021/06/04 10:42:04;;;;;;;7.68;5.85;;;;;;;;;;5116480;28;20027;-71
2021/06/04 10:44:32;;;;;;;;;;;;;;;;;;5116587;28;20028;-71
2021/06/04 10:47:00;;;;;;;14.07;7.20;;;;;;;;;;5116741;28;19908;-70
2021/06/04 10:49:33;;;;;;;12.73;5.93;;;;;;;;;;5116324;28;20047;-71
2021/06/04 10:52:05;;;;;;;7.63;5.97;;;;;;;;;;5116266;28;20032;-69
2021/06/04 10:54:51;;;;;;;14.35;7.10;;;;;;;;;;5116052;28;20477;-70
2021/06/04 10:57:21;;;;;;;9.70;5.45;;;;;;;;;;5101254;28;20031;-71
2021/06/04 10:59:56;;;;;;;8.57;6.82;;;;;;;;;;5116288;28;20377;-70
2021/06/04 11:02:25;;;;;;;6.80;5.55;;;;;;;;;;5115895;28;20159;-70
2021/06/04 11:05:11;;;;;;;13.13;6.25;;;;;;;;;;5116726;28;20035;-69
2021/06/04 11:07:40;;;;;;;7.47;5.63;;;;;;;;;;5101310;28;20507;-71
2021/06/04 11:10:07;;;;;;;12.95;8.05;;;;;;;;;;5116087;28;20027;-72
2021/06/04 11:12:53;;;;;;;7.10;5.80;;;;;;;;;;5115806;28;20019;-71
2021/06/04 11:15:39;;;;;;;13.93;6.65;;;;;;;;;;5100365;28;20062;-71
2021/06/04 11:18:11;;;;;;;13.18;5.65;;;;;;;;;;5100787;28;20034;-71
2021/06/04 11:20:40;;;;;;;7.80;6.00;;;;;;;;;;5115774;28;20035;-72
2021/06/04 11:23:10;;;;;;;9.68;4.85;;;;;;;;;;5115404;28;20385;-73
2021/06/04 11:25:45;;;;;;;6.05;5.47;;;;;;;;;;5115806;28;20023;-72
2021/06/04 11:28:19;;;;;;;11.70;5.75;;;;;;;;;;5115393;28;20051;-74
2021/06/04 11:30:46;;;;;;;17.30;5.93;;;;;;;;;;5115907;28;20077;-73
2021/06/04 11:33:15;;;;;;;8.13;6.70;;;;;;;;;;5102758;28;20107;-73
2021/06/04 11:35:48;;;;;;;7.32;6.20;;;;;;;;;;5095493;28;20377;-73
2021/06/04 11:38:34;;;;;;;9.85;6.10;;;;;;;;;;5095146;28;20070;-71
2021/06/04 11:41:06;;;;;;;8.48;6.32;;;;;;;;;;5081909;28;20468;-73
2021/06/04 11:43:32;;;;;;;6.22;5.65;;;;;;;;;;5093494;28;20040;-72
2021/06/04 11:46:15;;;;;;;8.50;5.47;;;;;;;;;;5094839;28;20017;-75
2021/06/04 11:48:42;;;;;;;6.32;5.57;;;;;;;;;;5095931;28;20028;-74
2021/06/04 11:51:24;;;;;;;7.03;5.93;;;;;;;;;;5093970;28;20441;-74
2021/06/04 11:53:51;;;;;;;12.35;5.38;;;;;;;;;;5094195;28;20071;-75
2021/06/04 11:56:37;;;;;;;7.30;5.57;;;;;;;;;;5094236;28;20031;-73
2021/06/04 11:59:03;;;;;;;5.47;4.97;;;;;;;;;;5076651;28;20043;-75
2021/06/04 12:01:49;;;;;;;8.18;5.70;;;;;;;;;;5093962;28;20473;-75
2021/06/04 12:04:16;;;;;;;8.20;5.35;;;;;;;;;;5079106;28;20040;-76
2021/06/04 12:06:53;;;;;;;8.23;5.13;;;;;;;;;;5094142;28;20103;-77
2021/06/04 12:09:39;;;;;;;6.53;5.55;;;;;;;;;;5093150;28;20378;-74
2021/06/04 12:12:27;;;;;;;13.77;6.03;;;;;;;;;;5079943;28;20032;-79
2021/06/04 12:15:13;;;;;;;6.85;5.78;;;;;;;;;;5079175;28;20031;-79
2021/06/04 12:17:39;;;;;;;9.68;5.95;;;;;;;;;;5080284;28;20108;-77
2021/06/04 12:20:25;;;;;;;8.63;5.22;;;;;;;;;;5094335;28;20055;-76
2021/06/04 12:22:53;;;;;;;6.10;5.50;;;;;;;;;;5078781;28;20047;-74
2021/06/04 12:25:39;;;;;;;8.10;4.90;;;;;;;;;;5094173;28;20028;-77
2021/06/04 12:28:06;;;;;;;7.22;5.68;;;;;;;;;;5078495;28;20024;-77
2021/06/04 12:30:43;;;;;;;8.65;5.30;;;;;;;;;;5094086;28;20020;-76
2021/06/04 12:33:09;;;;;;;12.73;4.93;;;;;;;;;;5093480;28;20530;-78
2021/06/04 12:35:39;;;;;;;7.78;5.53;;;;;;;;;;5093909;28;20245;-77
2021/06/04 12:38:25;;;;;;;7.63;5.07;;;;;;;;;;5093935;28;20060;-73
2021/06/04 12:40:52;;;;;;;5.65;4.95;;;;;;;;;;5079092;28;20070;-72
2021/06/04 12:43:19;;;;;;;8.05;5.30;;;;;;;;;;5093295;28;20028;-72
2021/06/04 12:45:55;;;;;;;5.38;4.88;;;;;;;;;;5093332;28;20111;-72
2021/06/04 12:48:23;;;;;;;6.22;4.97;;;;;;;;;;5093468;28;20028;-74
2021/06/04 12:51:06;;;;;;;5.85;5.22;;;;;;;;;;5092880;28;20051;-73
2021/06/04 12:53:37;;;;;;;4.93;4.53;;;;;;;;;;5093945;28;20056;-73
2021/06/04 12:56:06;;;;;;;6.72;5.18;;;;;;;;;;5097984;28;20058;-73
2021/06/04 12:58:34;;;;;;;6.90;4.50;;;;;;;;;;5110681;28;20058;-72
2021/06/04 13:01:20;;;;;;;5.80;5.20;;;;;;;;;;5113231;28;20103;-72
2021/06/04 13:03:49;;;;;;;4.63;4.22;;;;;;;;;;5098235;28;20030;-72
2021/06/04 13:06:33;;;;;;;6.25;4.85;;;;;;;;;;5104369;28;20027;-72
2021/06/04 13:08:59;;;;;;;5.20;4.70;;;;;;;;;;5102889;28;20033;-73
2021/06/04 13:11:34;;;;;;;10.85;5.05;;;;;;;;;;5100825;28;20062;-73
2021/06/04 13:14:00;;;;;;;5.40;4.88;;;;;;;;;;5092736;28;20054;-73
2021/06/04 13:16:28;;;;;;;5.53;4.38;;;;;;;;;;5091311;28;20473;-72
2021/06/04 13:18:55;;;;;;;5.45;4.45;;;;;;;;;;5092837;28;20473;-72
2021/06/04 13:21:23;;;;;;;6.47;4.63;;;;;;;;;;5092656;28;20036;-71
2021/06/04 13:23:58;;;;;;;4.95;4.45;;;;;;;;;;5092115;28;20039;-71
2021/06/04 13:26:25;;;;;;;5.22;4.72;;;;;;;;;;5092685;28;20024;-72
2021/06/04 13:28:52;;;;;;;13.40;4.88;;;;;;;;;;5093061;28;20031;-71
2021/06/04 13:31:20;;;;;;;8.43;4.57;;;;;;;;;;5092540;28;20386;-71
2021/06/04 13:33:49;;;;;;;7.57;4.20;;;;;;;;;;5092416;28;20025;-72
2021/06/04 13:36:15;;;;;;;12.82;4.85;;;;;;;;;;5091901;28;20020;-75
2021/06/04 13:38:44;;;;;;;12.02;6.03;;;;;;;;;;5092581;28;20055;-74
2021/06/04 13:41:20;;;;;;;5.43;4.88;;;;;;;;;;5092595;28;20092;-73
2021/06/04 13:43:48;;;;;;;6.93;6.20;;;;;;;;;;5092691;28;20028;-74
2021/06/04 13:46:16;;;;;;;11.75;5.53;;;;;;;;;;5092296;28;20032;-76
2021/06/04 13:48:46;;;;;;;7.80;6.25;;;;;;;;;;5092247;28;20020;-76
2021/06/04 13:51:25;;;;;;;6.45;5.35;;;;;;;;;;5092783;28;20081;-73
2021/06/04 13:53:53;;;;;;;19.38;6.07;;;;;;;;;;5092978;28;20127;-77
2021/06/04 13:56:24;;;;;;;7.20;5.63;;;;;;;;;;5092489;28;20028;-77
2021/06/04 13:58:51;;;;;;;5.22;4.78;;;;;;;;;;5092402;28;20028;-73
2021/06/04 14:01:20;;;;;;;6.78;4.50;;;;;;;;;;5092793;28;20032;-75
2021/06/04 14:03:49;;;;;;;5.20;4.32;;;;;;;;;;5092401;28;20130;-74
2021/06/04 14:06:16;;;;;;;5.57;4.85;;;;;;;;;;5092624;28;20369;-73
2021/06/04 14:08:53;;;;;;;5.32;4.53;;;;;;;;;;5092100;28;20024;-73
2021/06/04 14:11:19;;;;;;;8.57;4.53;;;;;;;;;;5092673;28;20059;-75
2021/06/04 14:14:06;;;;;;;6.88;4.63;;;;;;;;;;5093246;28;20035;-73
2021/06/04 14:16:41;;;;;;;12.57;9.13;;;;;;;;;;5081297;28;20016;-73
2021/06/04 14:19:24;;;;;;;11.02;8.57;;;;;;;;;;5098149;28;20416;-73
2021/06/04 14:21:50;;;;;;;10.63;8.40;;;;;;;;;;5096115;28;20082;-75
2021/06/04 14:24:26;;;;;;;14.20;7.95;;;;;;;;;;5096916;28;20040;-72
2021/06/04 14:27:01;;;;;;;9.75;7.85;;;;;;;;;;5096005;28;20062;-75
2021/06/04 14:29:32;;;;;;;15.70;8.32;;;;;;;;;;5093467;28;20046;-76
2021/06/04 14:31:58;;;;;;;;;;;;;;;;;;5095369;28;20027;-73
2021/06/04 14:34:26;;;;;;;9.90;8.13;;;;;;;;;;5095708;28;19904;-73
2021/06/04 14:36:53;;;;;;;11.75;7.80;;;;;;;;;;5097064;28;20040;-73
2021/06/04 14:39:28;;;;;;;12.35;7.38;;;;;;;;;;5096174;28;20020;-73
2021/06/04 14:41:56;;;;;;;9.32;7.55;;;;;;;;;;5096093;28;20103;-73
2021/06/04 14:44:22;;;;;;;8.98;7.32;;;;;;;;;;5095633;28;20054;-74
2021/06/04 14:46:50;;;;;;;11.10;6.68;;;;;;;;;;5095838;28;20046;-76
2021/06/04 14:49:16;;;;;;;8.50;7.13;;;;;;;;;;5096849;28;20501;-76
2021/06/04 14:51:42;;;;;;;9.48;6.78;;;;;;;;;;5096164;28;20027;-75
2021/06/04 14:54:09;;;;;;;10.65;7.97;;;;;;;;;;5096027;28;20043;-73
2021/06/04 14:56:35;;;;;;;8.75;6.70;;;;;;;;;;5095991;28;20024;-73